sensor_id;sensor_type;location;lat;lon;timestamp;pressure;altitude;pressure_sealevel;temperature;humidity
57668;BME280;43499;52.366;12.912;2022-12-29T00:00:17;100295.78;;;6.99;100.00
57668;BME280;43499;52.366;12.912;2022-12-29T00:01:18;100268.84;;;6.89;100.00
57668;BME280;43499;52.366;12.912;2022-12-29T00:02:20;100230.34;;;6.68;100.00
57668;BME280;43499;52.366;12.912;2022-12-29T00:03:21;100290.97;;;7.03;100.00
57668;BME280;43499;52.366;12.912;2022-12-29T00:04:22;100293.56;;;7.03;100.00
57668;BME280;43499;52.366;12.912;2022-12-29T00:05:23;100267.78;;;6.87;100.00
57668;BME280;43499;52.366;12.912;2022-12-29T00:06:25;100312.19;;;7.17;100.00
57668;BME280;43499;52.366;12.912;2022-12-29T00:07:26;100256.19;;;6.94;100.00
57668;BME280;43499;52.366;12.912;2022-12-29T00:08:27;100255.63;;;6.88;100.00
57668;BME280;43499;52.366;12.912;2022-12-29T00:09:40;100248.56;;;6.87;100.00
57668;BME280;43499;52.366;12.912;2022-12-29T00:10:41;100242.44;;;6.86;100.00
57668;BME280;43499;52.366;12.912;2022-12-29T00:11:42;100298.69;;;7.12;100.00
57668;BME280;43499;52.366;12.912;2022-12-29T00:12:43;100295.84;;;7.30;100.00
57668;BME280;43499;52.366;12.912;2022-12-29T00:14:03;100297.28;;;7.26;100.00
57668;BME280;43499;52.366;12.912;2022-12-29T00:15:23;100292.72;;;7.23;100.00
57668;BME280;43499;52.366;12.912;2022-12-29T00:16:43;100275.69;;;7.08;100.00
57668;BME280;43499;52.366;12.912;2022-12-29T00:17:44;100248.78;;;7.09;100.00
57668;BME280;43499;52.366;12.912;2022-12-29T00:18:45;100278.31;;;7.29;100.00
57668;BME280;43499;52.366;12.912;2022-12-29T00:19:46;100238.81;;;7.05;100.00
57668;BME280;43499;52.366;12.912;2022-12-29T00:21:15;100297.69;;;7.31;100.00
57668;BME280;43499;52.366;12.912;2022-12-29T00:22:35;100241.44;;;7.05;100.00
57668;BME280;43499;52.366;12.912;2022-12-29T00:23:55;100258.44;;;7.10;100.00
57668;BME280;43499;52.366;12.912;2022-12-29T00:25:14;100236.06;;;6.93;100.00
57668;BME280;43499;52.366;12.912;2022-12-29T00:26:34;100238.03;;;6.95;100.00
57668;BME280;43499;52.366;12.912;2022-12-29T00:27:54;100274.16;;;7.31;100.00
57668;BME280;43499;52.366;12.912;2022-12-29T00:29:15;100206.41;;;6.92;100.00
57668;BME280;43499;52.366;12.912;2022-12-29T00:30:35;100206.28;;;7.01;100.00
57668;BME280;43499;52.366;12.912;2022-12-29T00:31:55;100259.50;;;7.22;100.00
57668;BME280;43499;52.366;12.912;2022-12-29T00:33:17;100227.84;;;6.99;100.00
57668;BME280;43499;52.366;12.912;2022-12-29T00:34:37;100267.34;;;7.22;100.00
57668;BME280;43499;52.366;12.912;2022-12-29T00:36:01;100285.00;;;7.25;100.00
57668;BME280;43499;52.366;12.912;2022-12-29T00:37:04;100254.66;;;7.17;100.00
57668;BME280;43499;52.366;12.912;2022-12-29T00:38:07;100217.78;;;6.93;100.00
57668;BME280;43499;52.366;12.912;2022-12-29T00:39:27;100255.34;;;7.24;100.00
57668;BME280;43499;52.366;12.912;2022-12-29T00:40:47;100261.75;;;7.28;100.00
57668;BME280;43499;52.366;12.912;2022-12-29T00:42:08;100252.06;;;7.17;100.00
57668;BME280;43499;52.366;12.912;2022-12-29T00:43:28;100228.75;;;6.99;100.00
57668;BME280;43499;52.366;12.912;2022-12-29T00:44:48;100289.84;;;7.31;100.00
57668;BME280;43499;52.366;12.912;2022-12-29T00:45:49;100222.72;;;6.90;100.00
57668;BME280;43499;52.366;12.912;2022-12-29T00:46:50;100201.72;;;6.88;100.00
57668;BME280;43499;52.366;12.912;2022-12-29T00:47:51;100212.28;;;6.90;100.00
57668;BME280;43499;52.366;12.912;2022-12-29T00:48:52;100257.28;;;7.17;100.00
57668;BME280;43499;52.366;12.912;2022-12-29T00:50:12;100264.19;;;7.16;100.00
57668;BME280;43499;52.366;12.912;2022-12-29T00:51:13;100250.44;;;6.98;100.00
57668;BME280;43499;52.366;12.912;2022-12-29T00:52:14;100243.53;;;6.99;100.00
57668;BME280;43499;52.366;12.912;2022-12-29T00:53:15;100269.69;;;7.19;100.00
57668;BME280;43499;52.366;12.912;2022-12-29T00:54:16;100205.09;;;6.87;100.00
57668;BME280;43499;52.366;12.912;2022-12-29T00:55:17;100270.34;;;7.17;100.00
57668;BME280;43499;52.366;12.912;2022-12-29T00:56:20;100263.69;;;7.20;100.00
57668;BME280;43499;52.366;12.912;2022-12-29T00:57:21;100232.41;;;7.01;100.00
57668;BME280;43499;52.366;12.912;2022-12-29T00:58:22;100248.25;;;7.13;100.00
57668;BME280;43499;52.366;12.912;2022-12-29T00:59:24;100229.94;;;7.03;100.00
57668;BME280;43499;52.366;12.912;2022-12-29T01:00:25;100211.25;;;6.98;100.00
57668;BME280;43499;52.366;12.912;2022-12-29T01:01:26;100243.00;;;7.03;100.00
57668;BME280;43499;52.366;12.912;2022-12-29T01:02:28;100229.03;;;7.02;100.00
57668;BME280;43499;52.366;12.912;2022-12-29T01:03:29;100203.16;;;6.95;100.00
57668;BME280;43499;52.366;12.912;2022-12-29T01:04:30;100266.44;;;7.32;100.00
57668;BME280;43499;52.366;12.912;2022-12-29T01:05:36;100199.22;;;6.90;100.00
57668;BME280;43499;52.366;12.912;2022-12-29T01:06:38;100246.97;;;7.29;100.00
57668;BME280;43499;52.366;12.912;2022-12-29T01:07:40;100270.22;;;7.25;100.00
57668;BME280;43499;52.366;12.912;2022-12-29T01:08:41;100218.19;;;7.08;100.00
57668;BME280;43499;52.366;12.912;2022-12-29T01:09:42;100233.50;;;7.24;100.00
57668;BME280;43499;52.366;12.912;2022-12-29T01:11:06;100258.59;;;7.32;100.00
57668;BME280;43499;52.366;12.912;2022-12-29T01:12:09;100267.75;;;7.37;100.00
57668;BME280;43499;52.366;12.912;2022-12-29T01:13:10;100209.56;;;7.09;100.00
57668;BME280;43499;52.366;12.912;2022-12-29T01:14:11;100248.53;;;7.26;99.47
57668;BME280;43499;52.366;12.912;2022-12-29T01:15:14;100241.72;;;7.39;99.97
57668;BME280;43499;52.366;12.912;2022-12-29T01:16:16;100256.25;;;7.46;99.89
57668;BME280;43499;52.366;12.912;2022-12-29T01:17:17;100253.75;;;7.37;100.00
57668;BME280;43499;52.366;12.912;2022-12-29T01:18:19;100259.66;;;7.45;100.00
57668;BME280;43499;52.366;12.912;2022-12-29T01:19:20;100206.28;;;7.12;100.00
57668;BME280;43499;52.366;12.912;2022-12-29T01:20:21;100195.56;;;6.98;100.00
57668;BME280;43499;52.366;12.912;2022-12-29T01:21:22;100205.50;;;7.02;100.00
57668;BME280;43499;52.366;12.912;2022-12-29T01:22:25;100214.00;;;7.10;100.00
57668;BME280;43499;52.366;12.912;2022-12-29T01:23:26;100215.56;;;7.08;100.00
57668;BME280;43499;52.366;12.912;2022-12-29T01:24:27;100212.41;;;7.02;100.00
57668;BME280;43499;52.366;12.912;2022-12-29T01:25:28;100236.22;;;7.15;100.00
57668;BME280;43499;52.366;12.912;2022-12-29T01:26:29;100224.31;;;7.08;100.00
57668;BME280;43499;52.366;12.912;2022-12-29T01:27:31;100246.94;;;7.18;100.00
57668;BME280;43499;52.366;12.912;2022-12-29T01:28:32;100218.19;;;7.08;100.00
57668;BME280;43499;52.366;12.912;2022-12-29T01:29:33;100249.72;;;7.30;100.00
57668;BME280;43499;52.366;12.912;2022-12-29T01:30:35;100232.53;;;7.03;100.00
57668;BME280;43499;52.366;12.912;2022-12-29T01:31:36;100257.41;;;7.29;100.00
57668;BME280;43499;52.366;12.912;2022-12-29T01:32:37;100216.84;;;7.03;100.00
57668;BME280;43499;52.366;12.912;2022-12-29T01:33:38;100268.66;;;7.28;100.00
57668;BME280;43499;52.366;12.912;2022-12-29T01:34:40;100235.31;;;7.15;100.00
57668;BME280;43499;52.366;12.912;2022-12-29T01:35:41;100211.91;;;6.95;100.00
57668;BME280;43499;52.366;12.912;2022-12-29T01:36:42;100204.84;;;6.94;100.00
57668;BME280;43499;52.366;12.912;2022-12-29T01:37:43;100239.63;;;7.14;100.00
57668;BME280;43499;52.366;12.912;2022-12-29T01:38:44;100248.78;;;7.19;100.00
57668;BME280;43499;52.366;12.912;2022-12-29T01:39:45;100235.72;;;7.19;100.00
57668;BME280;43499;52.366;12.912;2022-12-29T01:40:46;100241.72;;;7.29;100.00
57668;BME280;43499;52.366;12.912;2022-12-29T01:41:47;100237.03;;;7.35;100.00
57668;BME280;43499;52.366;12.912;2022-12-29T01:42:49;100173.22;;;7.02;100.00
57668;BME280;43499;52.366;12.912;2022-12-29T01:43:56;100247.91;;;7.39;100.00
57668;BME280;43499;52.366;12.912;2022-12-29T01:45:02;100168.53;;;6.98;99.89
57668;BME280;43499;52.366;12.912;2022-12-29T01:46:09;100241.34;;;7.34;100.00
57668;BME280;43499;52.366;12.912;2022-12-29T01:47:26;100203.19;;;7.16;100.00
57668;BME280;43499;52.366;12.912;2022-12-29T01:48:29;100195.19;;;7.04;98.53
57668;BME280;43499;52.366;12.912;2022-12-29T01:49:30;100193.09;;;7.20;98.75
57668;BME280;43499;52.366;12.912;2022-12-29T01:50:39;100185.00;;;7.07;98.32
57668;BME280;43499;52.366;12.912;2022-12-29T01:51:57;100203.97;;;7.25;97.86
57668;BME280;43499;52.366;12.912;2022-12-29T01:53:08;100229.84;;;7.43;97.27
57668;BME280;43499;52.366;12.912;2022-12-29T01:54:14;100217.81;;;7.45;96.97
57668;BME280;43499;52.366;12.912;2022-12-29T01:55:16;100187.50;;;7.26;96.79
57668;BME280;43499;52.366;12.912;2022-12-29T01:56:20;100211.13;;;7.38;96.59
57668;BME280;43499;52.366;12.912;2022-12-29T01:57:29;100235.72;;;7.50;96.70
57668;BME280;43499;52.366;12.912;2022-12-29T01:58:34;100240.44;;;7.54;96.59
57668;BME280;43499;52.366;12.912;2022-12-29T01:59:41;100236.00;;;7.53;96.33
57668;BME280;43499;52.366;12.912;2022-12-29T02:00:45;100236.38;;;7.58;95.17
57668;BME280;43499;52.366;12.912;2022-12-29T02:01:46;100153.50;;;7.16;95.73
57668;BME280;43499;52.366;12.912;2022-12-29T02:02:51;100247.50;;;7.66;94.66
57668;BME280;43499;52.366;12.912;2022-12-29T02:03:53;100214.28;;;7.54;93.76
57668;BME280;43499;52.366;12.912;2022-12-29T02:04:57;100172.97;;;7.30;95.13
57668;BME280;43499;52.366;12.912;2022-12-29T02:06:08;100237.31;;;7.69;94.62
57668;BME280;43499;52.366;12.912;2022-12-29T02:07:18;100217.16;;;7.68;94.57
57668;BME280;43499;52.366;12.912;2022-12-29T02:08:22;100181.34;;;7.46;94.22
57668;BME280;43499;52.366;12.912;2022-12-29T02:09:24;100194.53;;;7.48;93.67
57668;BME280;43499;52.366;12.912;2022-12-29T02:10:27;100220.28;;;7.74;93.51
57668;BME280;43499;52.366;12.912;2022-12-29T02:11:30;100214.66;;;7.69;93.75
57668;BME280;43499;52.366;12.912;2022-12-29T02:12:31;100214.66;;;7.69;93.86
57668;BME280;43499;52.366;12.912;2022-12-29T02:13:32;100218.34;;;7.61;93.66
57668;BME280;43499;52.366;12.912;2022-12-29T02:14:33;100235.84;;;7.72;93.04
57668;BME280;43499;52.366;12.912;2022-12-29T02:18:44;100188.91;;;7.53;93.87
57668;BME280;43499;52.366;12.912;2022-12-29T02:20:14;100222.38;;;7.78;92.85
57668;BME280;43499;52.366;12.912;2022-12-29T02:24:09;100219.09;;;7.81;92.58
57668;BME280;43499;52.366;12.912;2022-12-29T02:27:26;100130.09;;;7.38;92.28
57668;BME280;43499;52.366;12.912;2022-12-29T02:29:09;100207.97;;;7.83;92.74
57668;BME280;43499;52.366;12.912;2022-12-29T02:30:34;100200.66;;;7.79;92.59
57668;BME280;43499;52.366;12.912;2022-12-29T02:34:35;100187.84;;;7.62;92.49
57668;BME280;43499;52.366;12.912;2022-12-29T02:35:51;100146.69;;;7.49;91.85
57668;BME280;43499;52.366;12.912;2022-12-29T02:37:00;100198.13;;;7.91;91.71
57668;BME280;43499;52.366;12.912;2022-12-29T02:38:23;100184.81;;;7.78;90.58
57668;BME280;43499;52.366;12.912;2022-12-29T02:39:41;100136.50;;;7.52;90.86
57668;BME280;43499;52.366;12.912;2022-12-29T02:40:51;100209.53;;;7.92;91.93
57668;BME280;43499;52.366;12.912;2022-12-29T02:42:04;100207.69;;;7.91;92.43
57668;BME280;43499;52.366;12.912;2022-12-29T02:44:55;100207.16;;;7.95;91.78
57668;BME280;43499;52.366;12.912;2022-12-29T02:46:10;100163.28;;;7.70;92.30
57668;BME280;43499;52.366;12.912;2022-12-29T02:47:36;100146.38;;;7.66;91.37
57668;BME280;43499;52.366;12.912;2022-12-29T02:48:50;100206.50;;;7.97;92.21
57668;BME280;43499;52.366;12.912;2022-12-29T02:50:13;100193.16;;;7.94;92.47
57668;BME280;43499;52.366;12.912;2022-12-29T02:51:21;100188.72;;;7.93;91.44
57668;BME280;43499;52.366;12.912;2022-12-29T02:52:32;100155.81;;;7.75;92.06
57668;BME280;43499;52.366;12.912;2022-12-29T02:53:35;100137.63;;;7.66;91.31
57668;BME280;43499;52.366;12.912;2022-12-29T02:54:56;100115.00;;;7.66;90.67
57668;BME280;43499;52.366;12.912;2022-12-29T02:55:59;100168.03;;;7.96;90.37
57668;BME280;43499;52.366;12.912;2022-12-29T02:57:00;100140.22;;;7.76;90.92
57668;BME280;43499;52.366;12.912;2022-12-29T02:59:09;100185.56;;;7.97;91.25
57668;BME280;43499;52.366;12.912;2022-12-29T03:00:16;100168.53;;;8.02;91.23
57668;BME280;43499;52.366;12.912;2022-12-29T03:02:02;100170.66;;;7.96;92.08
57668;BME280;43499;52.366;12.912;2022-12-29T03:03:55;100134.53;;;7.92;91.97
57668;BME280;43499;52.366;12.912;2022-12-29T03:07:59;100176.88;;;8.19;90.97
57668;BME280;43499;52.366;12.912;2022-12-29T03:09:16;100166.41;;;8.19;90.63
57668;BME280;43499;52.366;12.912;2022-12-29T03:10:31;100139.38;;;7.98;90.52
57668;BME280;43499;52.366;12.912;2022-12-29T03:11:45;100151.50;;;8.08;90.62
57668;BME280;43499;52.366;12.912;2022-12-29T03:13:37;100161.28;;;8.21;89.98
57668;BME280;43499;52.366;12.912;2022-12-29T03:15:00;100162.19;;;8.21;90.42
57668;BME280;43499;52.366;12.912;2022-12-29T03:16:24;100168.59;;;8.25;91.01
57668;BME280;43499;52.366;12.912;2022-12-29T03:19:14;100143.19;;;8.24;90.75
57668;BME280;43499;52.366;12.912;2022-12-29T03:20:23;100142.94;;;8.21;90.08
57668;BME280;43499;52.366;12.912;2022-12-29T03:21:44;100161.63;;;8.25;90.33
57668;BME280;43499;52.366;12.912;2022-12-29T03:23:12;100168.72;;;8.26;90.14
57668;BME280;43499;52.366;12.912;2022-12-29T03:24:16;100104.44;;;7.97;90.43
57668;BME280;43499;52.366;12.912;2022-12-29T03:25:22;100135.03;;;8.09;89.70
57668;BME280;43499;52.366;12.912;2022-12-29T03:26:24;100103.78;;;8.00;90.28
57668;BME280;43499;52.366;12.912;2022-12-29T03:27:30;100121.16;;;8.10;90.27
57668;BME280;43499;52.366;12.912;2022-12-29T03:28:39;100141.63;;;8.26;90.34
57668;BME280;43499;52.366;12.912;2022-12-29T03:29:47;100146.66;;;8.34;90.28
57668;BME280;43499;52.366;12.912;2022-12-29T03:30:54;100141.25;;;8.21;91.40
57668;BME280;43499;52.366;12.912;2022-12-29T03:31:58;100126.97;;;8.17;90.63
57668;BME280;43499;52.366;12.912;2022-12-29T03:33:02;100132.63;;;8.12;90.39
57668;BME280;43499;52.366;12.912;2022-12-29T03:34:09;100096.19;;;8.03;89.87
57668;BME280;43499;52.366;12.912;2022-12-29T03:35:15;100128.38;;;8.24;90.56
57668;BME280;43499;52.366;12.912;2022-12-29T03:36:26;100158.34;;;8.38;90.32
57668;BME280;43499;52.366;12.912;2022-12-29T03:37:32;100163.78;;;8.41;90.70
57668;BME280;43499;52.366;12.912;2022-12-29T03:38:59;100156.19;;;8.44;89.95
57668;BME280;43499;52.366;12.912;2022-12-29T03:40:03;100106.59;;;8.13;89.66
57668;BME280;43499;52.366;12.912;2022-12-29T03:41:08;100138.38;;;8.40;90.31
57668;BME280;43499;52.366;12.912;2022-12-29T03:42:15;100144.56;;;8.41;90.27
57668;BME280;43499;52.366;12.912;2022-12-29T03:43:17;100106.34;;;8.10;90.31
57668;BME280;43499;52.366;12.912;2022-12-29T03:44:20;100129.31;;;8.25;89.68
57668;BME280;43499;52.366;12.912;2022-12-29T03:45:22;100148.75;;;8.39;89.85
57668;BME280;43499;52.366;12.912;2022-12-29T03:46:23;100128.91;;;8.30;89.94
57668;BME280;43499;52.366;12.912;2022-12-29T03:47:25;100098.56;;;8.22;89.47
57668;BME280;43499;52.366;12.912;2022-12-29T03:48:26;100156.84;;;8.52;89.70
57668;BME280;43499;52.366;12.912;2022-12-29T03:49:29;100157.63;;;8.51;89.59
57668;BME280;43499;52.366;12.912;2022-12-29T03:50:31;100164.03;;;8.55;90.13
57668;BME280;43499;52.366;12.912;2022-12-29T03:51:32;100085.50;;;8.12;89.73
57668;BME280;43499;52.366;12.912;2022-12-29T03:52:34;100144.00;;;8.55;89.65
57668;BME280;43499;52.366;12.912;2022-12-29T03:53:35;100141.50;;;8.46;89.81
57668;BME280;43499;52.366;12.912;2022-12-29T03:54:37;100148.97;;;8.52;90.04
57668;BME280;43499;52.366;12.912;2022-12-29T03:55:38;100114.09;;;8.31;90.05
57668;BME280;43499;52.366;12.912;2022-12-29T03:56:39;100125.84;;;8.36;90.07
57668;BME280;43499;52.366;12.912;2022-12-29T03:57:41;100119.84;;;8.37;89.63
57668;BME280;43499;52.366;12.912;2022-12-29T03:58:46;100121.41;;;8.35;89.77
57668;BME280;43499;52.366;12.912;2022-12-29T03:59:55;100081.47;;;8.15;89.82
57668;BME280;43499;52.366;12.912;2022-12-29T04:00:56;100095.81;;;8.21;89.60
57668;BME280;43499;52.366;12.912;2022-12-29T04:01:57;100141.66;;;8.48;89.43
57668;BME280;43499;52.366;12.912;2022-12-29T04:02:59;100148.31;;;8.55;89.43
57668;BME280;43499;52.366;12.912;2022-12-29T04:04:00;100122.31;;;8.36;89.69
57668;BME280;43499;52.366;12.912;2022-12-29T04:05:01;100078.16;;;8.18;89.26
57668;BME280;43499;52.366;12.912;2022-12-29T04:06:02;100099.25;;;8.42;89.30
57668;BME280;43499;52.366;12.912;2022-12-29T04:07:10;100105.34;;;8.30;89.45
57668;BME280;43499;52.366;12.912;2022-12-29T04:08:11;100090.94;;;8.25;88.82
57668;BME280;43499;52.366;12.912;2022-12-29T04:09:12;100163.75;;;8.62;89.12
57668;BME280;43499;52.366;12.912;2022-12-29T04:10:18;100131.13;;;8.58;89.48
57668;BME280;43499;52.366;12.912;2022-12-29T04:11:21;100159.94;;;8.58;89.59
57668;BME280;43499;52.366;12.912;2022-12-29T04:12:23;100150.38;;;8.59;89.12
57668;BME280;43499;52.366;12.912;2022-12-29T04:13:24;100087.84;;;8.19;89.27
57668;BME280;43499;52.366;12.912;2022-12-29T04:14:26;100091.72;;;8.24;88.90
57668;BME280;43499;52.366;12.912;2022-12-29T04:15:27;100134.91;;;8.62;89.07
57668;BME280;43499;52.366;12.912;2022-12-29T04:16:28;100147.34;;;8.64;89.22
57668;BME280;43499;52.366;12.912;2022-12-29T04:17:29;100143.78;;;8.64;88.95
57668;BME280;43499;52.366;12.912;2022-12-29T04:18:30;100087.91;;;8.31;89.35
57668;BME280;43499;52.366;12.912;2022-12-29T04:19:31;100149.25;;;8.55;89.40
57668;BME280;43499;52.366;12.912;2022-12-29T04:20:32;100078.09;;;8.28;89.47
57668;BME280;43499;52.366;12.912;2022-12-29T04:21:55;100107.22;;;8.43;89.64
57668;BME280;43499;52.366;12.912;2022-12-29T04:23:05;100126.09;;;8.49;89.74
57668;BME280;43499;52.366;12.912;2022-12-29T04:24:08;100102.41;;;8.38;89.22
57668;BME280;43499;52.366;12.912;2022-12-29T04:25:13;100133.25;;;8.52;89.54
57668;BME280;43499;52.366;12.912;2022-12-29T04:26:16;100079.81;;;8.28;89.33
57668;BME280;43499;52.366;12.912;2022-12-29T04:27:30;100094.38;;;8.46;89.50
57668;BME280;43499;52.366;12.912;2022-12-29T04:28:52;100101.94;;;8.31;89.28
57668;BME280;43499;52.366;12.912;2022-12-29T04:30:15;100109.16;;;8.46;90.11
57668;BME280;43499;52.366;12.912;2022-12-29T04:31:36;100116.50;;;8.50;89.11
57668;BME280;43499;52.366;12.912;2022-12-29T04:32:37;100128.94;;;8.53;89.80
57668;BME280;43499;52.366;12.912;2022-12-29T04:33:39;100138.34;;;8.61;89.61
57668;BME280;43499;52.366;12.912;2022-12-29T04:34:40;100131.69;;;8.54;90.58
57668;BME280;43499;52.366;12.912;2022-12-29T04:35:42;100132.59;;;8.55;90.60
57668;BME280;43499;52.366;12.912;2022-12-29T04:36:44;100102.16;;;8.34;90.58
57668;BME280;43499;52.366;12.912;2022-12-29T04:37:45;100137.53;;;8.62;90.10
57668;BME280;43499;52.366;12.912;2022-12-29T04:38:46;100089.88;;;8.33;90.07
57668;BME280;43499;52.366;12.912;2022-12-29T04:39:47;100080.63;;;8.27;90.27
57668;BME280;43499;52.366;12.912;2022-12-29T04:40:49;100119.50;;;8.55;90.40
57668;BME280;43499;52.366;12.912;2022-12-29T04:41:52;100083.81;;;8.34;90.67
57668;BME280;43499;52.366;12.912;2022-12-29T04:42:55;100120.41;;;8.55;90.48
57668;BME280;43499;52.366;12.912;2022-12-29T04:43:57;100083.59;;;8.31;90.94
57668;BME280;43499;52.366;12.912;2022-12-29T04:45:17;100075.25;;;8.25;91.59
57668;BME280;43499;52.366;12.912;2022-12-29T04:46:35;100090.22;;;8.48;90.60
57668;BME280;43499;52.366;12.912;2022-12-29T04:47:41;100072.97;;;8.30;90.40
57668;BME280;43499;52.366;12.912;2022-12-29T04:49:03;100083.59;;;8.31;91.12
57668;BME280;43499;52.366;12.912;2022-12-29T04:50:27;100081.09;;;8.33;90.73
57668;BME280;43499;52.366;12.912;2022-12-29T04:51:39;100118.81;;;8.57;90.78
57668;BME280;43499;52.366;12.912;2022-12-29T04:52:42;100124.19;;;8.59;90.96
57668;BME280;43499;52.366;12.912;2022-12-29T04:53:45;100096.50;;;8.40;90.92
57668;BME280;43499;52.366;12.912;2022-12-29T04:54:46;100093.75;;;8.39;91.41
57668;BME280;43499;52.366;12.912;2022-12-29T04:55:52;100120.22;;;8.64;91.23
57668;BME280;43499;52.366;12.912;2022-12-29T04:56:53;100108.22;;;8.56;91.30
57668;BME280;43499;52.366;12.912;2022-12-29T04:57:54;100120.00;;;8.61;91.35
57668;BME280;43499;52.366;12.912;2022-12-29T04:58:55;100081.59;;;8.39;91.65
57668;BME280;43499;52.366;12.912;2022-12-29T04:59:56;100090.81;;;8.46;91.55
57668;BME280;43499;52.366;12.912;2022-12-29T05:00:58;100111.44;;;8.63;91.17
57668;BME280;43499;52.366;12.912;2022-12-29T05:02:03;100054.53;;;8.28;92.35
57668;BME280;43499;52.366;12.912;2022-12-29T05:03:05;100115.66;;;8.61;92.35
57668;BME280;43499;52.366;12.912;2022-12-29T05:04:06;100054.13;;;8.34;91.90
57668;BME280;43499;52.366;12.912;2022-12-29T05:05:07;100077.38;;;8.41;91.64
57668;BME280;43499;52.366;12.912;2022-12-29T05:06:10;100053.56;;;8.38;91.49
57668;BME280;43499;52.366;12.912;2022-12-29T05:07:12;100093.47;;;8.68;91.64
57668;BME280;43499;52.366;12.912;2022-12-29T05:08:13;100078.88;;;8.60;91.78
57668;BME280;43499;52.366;12.912;2022-12-29T05:09:15;100078.25;;;8.52;91.31
57668;BME280;43499;52.366;12.912;2022-12-29T05:10:16;100068.19;;;8.46;91.52
57668;BME280;43499;52.366;12.912;2022-12-29T05:11:17;100104.66;;;8.77;91.37
57668;BME280;43499;52.366;12.912;2022-12-29T05:12:20;100045.16;;;8.42;91.88
57668;BME280;43499;52.366;12.912;2022-12-29T05:13:29;100071.31;;;8.53;91.82
57668;BME280;43499;52.366;12.912;2022-12-29T05:14:31;100103.09;;;8.79;92.22
57668;BME280;43499;52.366;12.912;2022-12-29T05:15:32;100030.75;;;8.47;91.46
57668;BME280;43499;52.366;12.912;2022-12-29T05:16:33;100057.34;;;8.64;91.21
57668;BME280;43499;52.366;12.912;2022-12-29T05:17:34;100057.34;;;8.64;91.51
57668;BME280;43499;52.366;12.912;2022-12-29T05:18:35;100095.13;;;8.90;91.15
57668;BME280;43499;52.366;12.912;2022-12-29T05:19:37;100077.31;;;8.74;91.30
57668;BME280;43499;52.366;12.912;2022-12-29T05:20:39;100059.84;;;8.62;91.34
57668;BME280;43499;52.366;12.912;2022-12-29T05:21:40;100061.78;;;8.65;91.17
57668;BME280;43499;52.366;12.912;2022-12-29T05:22:42;100083.44;;;8.74;91.37
57668;BME280;43499;52.366;12.912;2022-12-29T05:23:43;100103.59;;;8.86;91.64
57668;BME280;43499;52.366;12.912;2022-12-29T05:24:44;100065.13;;;8.74;91.52
57668;BME280;43499;52.366;12.912;2022-12-29T05:25:45;100056.97;;;8.59;91.42
57668;BME280;43499;52.366;12.912;2022-12-29T05:26:56;100073.78;;;8.73;92.27
57668;BME280;43499;52.366;12.912;2022-12-29T05:28:07;100095.56;;;8.84;92.54
57668;BME280;43499;52.366;12.912;2022-12-29T05:29:18;100037.75;;;8.59;91.58
57668;BME280;43499;52.366;12.912;2022-12-29T05:30:19;100104.16;;;8.93;92.22
57668;BME280;43499;52.366;12.912;2022-12-29T05:31:21;100063.31;;;8.73;92.25
57668;BME280;43499;52.366;12.912;2022-12-29T05:32:23;100089.78;;;8.88;92.52
57668;BME280;43499;52.366;12.912;2022-12-29T05:33:24;100038.44;;;8.56;91.93
57668;BME280;43499;52.366;12.912;2022-12-29T05:34:26;100102.41;;;8.82;91.64
57668;BME280;43499;52.366;12.912;2022-12-29T05:35:27;100065.25;;;8.76;91.95
57668;BME280;43499;52.366;12.912;2022-12-29T05:36:28;100091.97;;;8.94;91.73
57668;BME280;43499;52.366;12.912;2022-12-29T05:37:33;100097.56;;;8.99;91.25
57668;BME280;43499;52.366;12.912;2022-12-29T05:38:34;100099.75;;;9.04;91.02
57668;BME280;43499;52.366;12.912;2022-12-29T05:39:35;100096.34;;;9.05;91.24
57668;BME280;43499;52.366;12.912;2022-12-29T05:40:39;100052.06;;;8.86;91.27
57668;BME280;43499;52.366;12.912;2022-12-29T05:41:48;100053.34;;;8.91;91.36
57668;BME280;43499;52.366;12.912;2022-12-29T05:43:10;100095.09;;;9.12;91.47
57668;BME280;43499;52.366;12.912;2022-12-29T05:44:29;100063.25;;;8.95;90.94
57668;BME280;43499;52.366;12.912;2022-12-29T05:45:49;100084.97;;;9.17;90.73
57668;BME280;43499;52.366;12.912;2022-12-29T05:47:10;100052.31;;;9.01;90.82
57668;BME280;43499;52.366;12.912;2022-12-29T05:48:26;100091.25;;;9.19;90.40
57668;BME280;43499;52.366;12.912;2022-12-29T05:49:44;100059.59;;;8.93;90.44
57668;BME280;43499;52.366;12.912;2022-12-29T05:50:55;100077.53;;;9.11;90.83
57668;BME280;43499;52.366;12.912;2022-12-29T05:52:07;100040.44;;;8.94;90.79
57668;BME280;43499;52.366;12.912;2022-12-29T05:53:09;100076.94;;;9.15;91.33
57668;BME280;43499;52.366;12.912;2022-12-29T05:54:11;100062.13;;;9.04;91.12
57668;BME280;43499;52.366;12.912;2022-12-29T05:55:14;100064.28;;;9.09;91.10
57668;BME280;43499;52.366;12.912;2022-12-29T05:56:16;100031.69;;;8.94;90.78
57668;BME280;43499;52.366;12.912;2022-12-29T05:57:17;100065.13;;;9.20;90.47
57668;BME280;43499;52.366;12.912;2022-12-29T05:58:22;100027.78;;;8.89;89.94
57668;BME280;43499;52.366;12.912;2022-12-29T05:59:24;100031.25;;;9.00;90.15
57668;BME280;43499;52.366;12.912;2022-12-29T06:00:26;100077.53;;;9.23;90.84
57668;BME280;43499;52.366;12.912;2022-12-29T06:01:27;100027.25;;;8.93;90.72
57668;BME280;43499;52.366;12.912;2022-12-29T06:02:28;100037.19;;;8.97;91.19
57668;BME280;43499;52.366;12.912;2022-12-29T06:03:29;100073.31;;;9.13;90.48
57668;BME280;43499;52.366;12.912;2022-12-29T06:04:31;100021.31;;;8.95;90.53
57668;BME280;43499;52.366;12.912;2022-12-29T06:05:32;100078.69;;;9.26;90.93
57668;BME280;43499;52.366;12.912;2022-12-29T06:06:33;100052.22;;;9.11;89.93